^^
Meteo Knjazevac Station Historical Data
Daily Summary for May 10, 2021 Units:  Metric    English   Both
Daily Weekly Monthly Yearly Custom
  High: Low: Average:
Temperature: 21.8 °C 17.9 °C 19.7 °C
Dew Point: 16.2 °C 15.2 °C 15.7 °C
Humidity: 84% 70% 78%
Wind Speed: 3.2km/h 0km/h 1km/h
Wind Gust: 8km/h - -
Wind- - WNW
Pressure: 1019.9 hPa 1019.5 hPa -
Precipitation: 0 mm    
Historical Graphs
 
 
Tabular Data for May 10, 2021
Time Temperature Dew Point Pressure Wind Wind Speed Wind Gust Humidity Rainfall Rate (Hourly) solar Conditions
00:00 21.8 °C 16.1 °C 1019.9 hPa West 1.6 km/h 3.2 km/h 70% 0 mm 0 W/m2
00:10 21.6 °C 16.2 °C 1019.9 hPa Calm   1.6 km/h 71% 0 mm 0 W/m2
00:20 21.5 °C 16 °C 1019.9 hPa NW 1.6 km/h 3.2 km/h 71% 0 mm 0 W/m2
00:30 21.5 °C 16.2 °C 1019.9 hPa Calm   1.6 km/h 72% 0 mm 0 W/m2
00:40 21.5 °C 16.2 °C 1019.5 hPa Calm   1.6 km/h 72% 0 mm 0 W/m2
00:50 21.2 °C 16.2 °C 1019.5 hPa Calm   3.2 km/h 73% 0 mm 0 W/m2
01:00 21.1 °C 16.1 °C 1019.5 hPa NW 1.6 km/h 3.2 km/h 73% 0 mm 0 W/m2
01:10 20.8 °C 16 °C 1019.5 hPa Calm   3.2 km/h 74% 0 mm 0 W/m2
01:20 20.6 °C 15.8 °C 1019.5 hPa Calm   3.2 km/h 74% 0 mm 0 W/m2
01:30 20.3 °C 15.7 °C 1019.5 hPa NW 1.6 km/h 3.2 km/h 75% 0 mm 0 W/m2
01:40 20 °C 15.8 °C 1019.5 hPa West 1.6 km/h 8 km/h 77% 0 mm 0 W/m2
01:50 20 °C 15.8 °C 1019.5 hPa WNW 1.6 km/h 6.4 km/h 77% 0 mm 0 W/m2
02:00 19.9 °C 15.9 °C 1019.5 hPa Calm   3.2 km/h 78% 0 mm 0 W/m2
02:10 19.7 °C 15.8 °C 1019.5 hPa NNW 1.6 km/h 1.6 km/h 78% 0 mm 0 W/m2
02:20 19.5 °C 15.8 °C 1019.9 hPa Calm   3.2 km/h 79% 0 mm 0 W/m2
02:30 19.5 °C 15.8 °C 1019.5 hPa Calm   3.2 km/h 79% 0 mm 0 W/m2
02:40 19.4 °C 15.7 °C 1019.5 hPa Calm     79% 0 mm 0 W/m2
02:50 19.3 °C 15.6 °C 1019.5 hPa Calm     79% 0 mm 0 W/m2
03:00 19.3 °C 15.8 °C 1019.5 hPa Calm   1.6 km/h 80% 0 mm 0 W/m2
03:10 19.2 °C 15.7 °C 1019.5 hPa WSW 1.6 km/h 3.2 km/h 80% 0 mm 0 W/m2
03:20 18.9 °C 15.4 °C 1019.5 hPa West 3.2 km/h 3.2 km/h 80% 0 mm 0 W/m2
03:30 18.7 °C 15.4 °C 1019.9 hPa WNW 1.6 km/h 3.2 km/h 81% 0 mm 0 W/m2
03:40 18.6 °C 15.3 °C 1019.9 hPa WSW 1.6 km/h 4.8 km/h 81% 0 mm 0 W/m2
03:50 18.3 °C 15.4 °C 1019.5 hPa WSW 3.2 km/h 4.8 km/h 83% 0 mm 0 W/m2
04:00 18.2 °C 15.4 °C 1019.5 hPa West 3.2 km/h 6.4 km/h 84% 0 mm 0 W/m2
04:10 18.2 °C 15.4 °C 1019.9 hPa West 3.2 km/h 4.8 km/h 84% 0 mm 0 W/m2
04:20 18.2 °C 15.4 °C 1019.9 hPa NW 1.6 km/h 4.8 km/h 84% 0 mm 0 W/m2
04:30 18.2 °C 15.4 °C 1019.9 hPa Calm   6.4 km/h 84% 0 mm 0 W/m2
04:40 18.1 °C 15.3 °C 1019.9 hPa Calm   1.6 km/h 84% 0 mm 0 W/m2
04:50 17.9 °C 15.2 °C 1019.9 hPa Calm   1.6 km/h 84% 0 mm 0 W/m2
Knjazevac, Serbia
Compliments of Weather Underground - 2 mb